Time;durP1;ratioP1;P1;durP2;ratioP2;P2;SDS_P1;SDS_P2;PMS_P1;PMS_P2;Temp;Humidity;BMP_temperature;BMP_pressure;BME280_temperature;BME280_humidity;BME280_pressure;Samples;Min_cycle;Max_cycle;Signal;HPM_P1;HPM_P2
2022/08/17 00:01:03;;;;;;;35.40;29.13;;;;;;;21.29;72.32;100776.91;6191637;23;20016;-87
2022/08/17 00:03:32;;;;;;;37.38;29.55;;;;;;;21.31;72.45;100783.00;6218075;23;20004;-86
2022/08/17 00:06:12;;;;;;;33.00;29.23;;;;;;;21.33;71.36;100773.31;6191414;23;20015;-87
2022/08/17 00:09:01;;;;;;;34.55;28.92;;;;;;;21.35;71.32;100781.31;6192595;23;20444;-87
2022/08/17 00:11:30;;;;;;;36.80;29.98;;;;;;;21.40;72.43;100772.97;6191336;23;20016;-87
2022/08/17 00:13:59;;;;;;;37.13;30.95;;;;;;;21.44;71.70;100776.00;6191300;23;20008;-87
2022/08/17 00:16:32;;;;;;;34.28;29.92;;;;;;;21.42;72.04;100776.28;6191000;23;20009;-87
2022/08/17 00:18:58;;;;;;;37.37;30.33;;;;;;;21.43;71.94;100752.25;6192294;23;20009;-87
2022/08/17 00:21:24;;;;;;;39.38;31.50;;;;;;;21.43;71.97;100747.53;6191185;23;20016;-87
2022/08/17 00:23:50;;;;;;;38.15;33.08;;;;;;;21.41;72.40;100746.19;6191289;23;20043;-87
2022/08/17 00:26:19;;;;;;;38.78;30.35;;;;;;;21.39;72.79;100746.47;6192291;23;20028;-87
2022/08/17 00:28:46;;;;;;;44.23;32.43;;;;;;;21.45;73.00;100747.25;6191475;23;20012;-87
2022/08/17 00:31:12;;;;;;;39.40;33.03;;;;;;;21.44;73.11;100743.69;6218114;23;20028;-87
2022/08/17 00:33:42;;;;;;;42.25;33.58;;;;;;;21.43;73.38;100746.72;6190338;23;20016;-87
2022/08/17 00:36:08;;;;;;;38.72;32.50;;;;;;;21.44;73.12;100742.88;6215872;23;20012;-87
2022/08/17 00:38:34;;;;;;;40.92;33.35;;;;;;;21.44;72.70;100743.69;6217728;23;20087;-87
2022/08/17 00:41:05;;;;;;;41.90;32.60;;;;;;;21.45;73.41;100739.81;6190944;23;20032;-87
2022/08/17 00:43:43;;;;;;;40.88;32.75;;;;;;;21.47;72.73;100737.56;6218431;23;20012;-87
2022/08/17 00:46:14;;;;;;;43.40;34.35;;;;;;;21.45;73.23;100738.97;6191703;23;20099;-87
2022/08/17 00:48:39;;;;;;;43.33;33.13;;;;;;;21.39;73.45;100735.44;6217390;23;20004;-87
2022/08/17 00:51:05;;;;;;;44.43;36.30;;;;;;;21.36;73.76;100738.78;6191126;23;20031;-87
2022/08/17 00:53:32;;;;;;;39.65;33.78;;;;;;;21.35;74.20;100734.41;6217600;23;20411;-87
2022/08/17 00:56:02;;;;;;;41.85;34.10;;;;;;;21.34;74.66;100738.25;6217547;23;20009;-87
2022/08/17 00:58:28;;;;;;;41.47;33.63;;;;;;;21.34;74.38;100741.03;6190880;23;20036;-87
2022/08/17 01:00:53;;;;;;;41.42;33.28;;;;;;;21.33;74.02;100736.59;6191368;23;20032;-87
2022/08/17 01:03:26;;;;;;;51.93;35.03;;;;;;;21.31;74.30;100738.84;6165784;23;20016;-87
2022/08/17 01:05:55;;;;;;;41.97;34.03;;;;;;;21.31;74.65;100727.81;6190948;23;20088;-87
2022/08/17 01:08:24;;;;;;;43.53;34.47;;;;;;;21.32;74.69;100740.50;6190835;23;20001;-87
2022/08/17 01:10:52;;;;;;;41.80;34.80;;;;;;;21.33;74.34;100739.38;6216974;23;20005;-87
2022/08/17 01:13:19;;;;;;;39.13;34.72;;;;;;;21.31;74.70;100736.09;6191063;23;20009;-87
2022/08/17 01:15:58;;;;;;;41.77;34.83;;;;;;;21.31;73.82;100728.63;6190431;23;20308;-87
2022/08/17 01:18:25;;;;;;;42.28;34.00;;;;;;;21.27;74.94;100732.25;6190563;23;20005;-87
2022/08/17 01:20:54;;;;;;;40.50;33.38;;;;;;;21.27;74.46;100719.28;6190342;23;20088;-87
2022/08/17 01:23:22;;;;;;;41.30;32.28;;;;;;;21.27;74.69;100727.53;6191733;23;20411;-87
2022/08/17 01:25:54;;;;;;;43.00;34.88;;;;;;;21.24;74.32;100722.63;6217249;23;20043;-87
2022/08/17 01:28:20;;;;;;;40.20;33.73;;;;;;;21.26;74.81;100716.81;6217321;23;20362;-87
2022/08/17 01:30:48;;;;;;;37.90;32.65;;;;;;;21.26;74.66;100720.41;6165643;23;20012;-89
2022/08/17 01:33:14;;;;;;;39.30;32.03;;;;;;;21.25;74.53;100715.19;6165346;23;20017;-87
2022/08/17 01:35:39;;;;;;;42.17;30.73;;;;;;;21.27;74.79;100712.94;6190725;23;20004;-90
2022/08/17 01:38:05;;;;;;;37.40;30.73;;;;;;;21.28;74.81;100703.56;6190207;23;20036;-87
2022/08/17 01:40:45;;;;;;;36.95;31.38;;;;;;;21.26;74.56;100708.53;6215545;23;20004;-87
2022/08/17 01:43:21;;;;;;;40.77;30.63;;;;;;;21.25;74.32;100706.91;6190581;23;20075;-87
2022/08/17 01:45:53;;;;;;;39.00;30.48;;;;;;;21.23;74.65;100706.34;6191595;23;20415;-87
2022/08/17 01:48:19;;;;;;;35.13;29.52;;;;;;;21.22;74.94;100699.22;6190840;23;20036;-87
2022/08/17 01:50:47;;;;;;;36.75;29.15;;;;;;;21.20;74.66;100705.03;6165572;23;20334;-87
2022/08/17 01:53:26;;;;;;;35.17;30.00;;;;;;;21.19;74.37;100706.13;6190526;23;20028;-87
2022/08/17 01:55:56;;;;;;;39.35;30.25;;;;;;;21.15;75.15;100707.81;6190815;23;20005;-87
2022/08/17 01:58:22;;;;;;;36.85;30.33;;;;;;;21.12;75.31;100697.34;6216977;23;20040;-87
2022/08/17 02:00:52;;;;;;;36.70;29.63;;;;;;;21.09;75.21;100700.69;6189913;23;20016;-87
2022/08/17 02:03:19;;;;;;;36.35;30.30;;;;;;;21.03;75.54;100697.16;6190678;23;20040;-87
2022/08/17 02:05:47;;;;;;;34.50;29.63;;;;;;;20.97;75.52;100696.38;6216990;23;20036;-87
2022/08/17 02:08:13;;;;;;;37.95;30.20;;;;;;;20.96;75.46;100691.97;6190238;23;20009;-87
2022/08/17 02:10:39;;;;;;;36.28;30.83;;;;;;;20.93;76.12;100689.78;6190569;23;20005;-87
2022/08/17 02:13:04;;;;;;;38.50;30.00;;;;;;;20.91;75.98;100688.44;6216946;23;20318;-87
2022/08/17 02:15:30;;;;;;;34.63;30.00;;;;;;;20.90;76.18;100693.13;6190702;23;20095;-87
2022/08/17 02:17:59;;;;;;;36.92;29.70;;;;;;;20.87;76.35;100685.44;6216398;23;20011;-87
2022/08/17 02:20:24;;;;;;;35.38;30.27;;;;;;;20.83;76.45;100696.22;6165954;23;20032;-87
2022/08/17 02:22:50;;;;;;;35.47;29.27;;;;;;;20.80;76.28;100694.06;6190094;23;20086;-87
2022/08/17 02:25:19;;;;;;;39.10;29.13;;;;;;;20.78;76.75;100696.25;6190141;23;20012;-86
2022/08/17 02:27:45;;;;;;;36.23;30.23;;;;;;;20.73;77.55;100699.06;6190457;23;20066;-87
2022/08/17 02:30:13;;;;;;;32.95;29.25;;;;;;;20.74;77.37;100700.69;6190305;23;20111;-87
2022/08/17 02:32:39;;;;;;;36.28;30.85;;;;;;;20.71;76.81;100693.00;6216109;23;20041;-87
2022/08/17 02:35:06;;;;;;;36.35;30.55;;;;;;;20.68;77.32;100691.66;6190364;23;20433;-86
2022/08/17 02:37:34;;;;;;;40.63;31.35;;;;;;;20.68;77.21;100691.66;6216201;23;20032;-87
2022/08/17 02:40:00;;;;;;;40.53;31.63;;;;;;;20.67;77.42;100678.16;6216171;23;20008;-87
2022/08/17 02:42:34;;;;;;;38.38;32.28;;;;;;;20.66;77.31;100685.59;6189583;23;20335;-87
2022/08/17 02:45:01;;;;;;;39.15;32.58;;;;;;;20.65;77.34;100683.09;6190358;23;20005;-87
2022/08/17 02:47:27;;;;;;;41.15;34.40;;;;;;;20.59;78.40;100687.00;6190933;23;20393;-87
2022/08/17 02:49:53;;;;;;;45.17;34.60;;;;;;;20.53;78.28;100679.88;6216625;23;20027;-87
2022/08/17 02:52:20;;;;;;;43.87;34.80;;;;;;;20.52;78.53;100690.06;6165214;23;20035;-87
2022/08/17 02:54:48;;;;;;;39.40;34.33;;;;;;;20.49;78.42;100680.47;6189746;23;20063;-86
2022/08/17 02:57:13;;;;;;;42.50;33.67;;;;;;;20.48;79.07;100684.31;6189748;23;20043;-87
2022/08/17 02:59:40;;;;;;;41.67;34.27;;;;;;;20.48;78.72;100675.25;6189627;23;20050;-87
2022/08/17 03:02:10;;;;;;;42.00;35.58;;;;;;;20.44;79.21;100677.72;6190190;23;20011;-87
2022/08/17 03:04:38;;;;;;;48.38;35.45;;;;;;;20.39;79.08;100676.94;6190148;23;20009;-87
2022/08/17 03:07:04;;;;;;;45.58;36.33;;;;;;;20.36;79.82;100672.00;6189811;23;20026;-87
2022/08/17 03:09:30;;;;;;;41.50;34.57;;;;;;;20.36;79.65;100669.25;6189618;23;20095;-87
2022/08/17 03:12:14;;;;;;;45.65;36.10;;;;;;;20.32;79.35;100657.97;6215927;23;20019;-86
2022/08/17 03:14:41;;;;;;;43.50;36.78;;;;;;;20.29;80.00;100661.31;6189834;23;20004;-87
2022/08/17 03:17:08;;;;;;;46.67;35.72;;;;;;;20.27;80.27;100664.34;6189590;23;20009;-87
2022/08/17 03:19:34;;;;;;;41.88;36.13;;;;;;;20.25;80.71;100668.50;6189592;23;20008;-87
2022/08/17 03:22:00;;;;;;;45.07;34.50;;;;;;;20.25;81.51;100668.50;6189150;23;20343;-87
2022/08/17 03:24:28;;;;;;;42.00;34.90;;;;;;;20.21;81.23;100665.50;6189539;23;20004;-87
2022/08/17 03:26:53;;;;;;;45.47;36.60;;;;;;;20.19;81.88;100666.88;6189988;23;20016;-87
2022/08/17 03:29:18;;;;;;;43.97;36.00;;;;;;;20.15;81.57;100664.69;6215763;23;20040;-87
2022/08/17 03:31:45;;;;;;;44.20;35.93;;;;;;;20.16;81.68;100673.78;6189516;23;20008;-87
2022/08/17 03:34:12;;;;;;;44.50;35.42;;;;;;;20.12;81.71;100668.03;6217162;23;20019;-87
2022/08/17 03:36:38;;;;;;;42.22;34.40;;;;;;;20.12;81.50;100670.78;6189905;23;20009;-88
2022/08/17 03:39:03;;;;;;;44.87;34.50;;;;;;;20.14;81.24;100671.31;6215648;23;20059;-87
2022/08/17 03:41:29;;;;;;;41.53;33.50;;;;;;;20.17;81.04;100669.91;6216078;23;20422;-87
2022/08/17 03:43:59;;;;;;;38.70;32.83;;;;;;;20.16;81.09;100676.53;6164904;23;20016;-87
2022/08/17 03:57:51;;;;;;;43.07;33.37;;;;;;;20.25;81.39;100683.06;6175922;23;20019;-87
2022/08/17 04:00:19;;;;;;;41.67;34.30;;;;;;;20.25;81.40;100690.53;6215023;23;20040;-87
2022/08/17 04:02:47;;;;;;;39.97;33.63;;;;;;;20.22;81.26;100691.91;6164620;23;20008;-88
2022/08/17 04:05:15;;;;;;;40.42;33.92;;;;;;;20.25;81.32;100698.78;6189457;23;20316;-87
2022/08/17 04:07:43;;;;;;;37.28;32.58;;;;;;;20.22;81.47;100707.63;6189780;23;20012;-87
2022/08/17 04:10:08;;;;;;;42.23;34.83;;;;;;;20.16;81.41;100724.16;6190195;23;20067;-87
2022/08/17 04:13:00;;;;;;;47.70;38.10;;;;;;;20.05;81.80;100746.53;6189119;23;20382;-86
2022/08/17 04:15:29;;;;;;;52.60;38.80;;;;;;;19.92;84.14;100743.28;6209275;23;20004;-86
2022/08/17 04:17:55;;;;;;;48.60;37.10;;;;;;;19.84;85.00;100743.84;6216765;23;20008;-87
2022/08/17 04:20:22;;;;;;;46.08;37.33;;;;;;;19.77;85.57;100738.63;6215476;23;20004;-86
2022/08/17 04:23:05;;;;;;;50.10;38.20;;;;;;;19.75;85.11;100729.81;6188907;23;20011;-87
2022/08/17 04:25:35;;;;;;;48.92;37.10;;;;;;;19.72;86.30;100738.63;6190484;23;20000;-87
2022/08/17 04:28:03;;;;;;;52.08;38.42;;;;;;;19.69;86.75;100735.63;6165385;23;20379;-87
2022/08/17 04:30:32;;;;;;;46.37;37.33;;;;;;;19.70;86.93;100745.53;6215830;23;20009;-86
2022/08/17 04:33:04;;;;;;;45.45;37.38;;;;;;;19.68;87.24;100759.56;6188965;23;20012;-87
2022/08/17 04:35:33;;;;;;;47.63;39.03;;;;;;;19.66;87.54;100758.19;6190131;23;20008;-86
2022/08/17 04:38:00;;;;;;;49.33;37.67;;;;;;;19.62;88.19;100783.53;6189557;23;20008;-86
2022/08/17 04:43:14;;;;;;;48.43;35.70;;;;;;;19.62;88.50;100769.75;6218207;23;20055;-87
2022/08/17 04:45:46;;;;;;;47.95;38.38;;;;;;;19.61;88.74;100783.81;6216409;23;20434;-87
2022/08/17 04:48:12;;;;;;;54.38;37.03;;;;;;;19.60;89.26;100776.63;6191326;23;20481;-87
2022/08/17 04:50:42;;;;;;;48.20;37.00;;;;;;;19.59;89.39;100775.81;6217448;23;20005;-87
2022/08/17 04:53:15;;;;;;;45.83;36.80;;;;;;;19.59;89.17;100784.06;6218759;23;20079;-86
2022/08/17 04:55:41;;;;;;;49.40;38.03;;;;;;;19.63;89.47;100771.41;6190870;23;20015;-87
2022/08/17 04:58:07;;;;;;;47.60;36.83;;;;;;;19.66;89.14;100786.53;6190609;23;20016;-84
2022/08/17 05:00:33;;;;;;;42.00;35.13;;;;;;;19.70;89.04;100764.78;6215476;23;20017;-87
2022/08/17 05:02:59;;;;;;;45.00;34.83;;;;;;;19.78;88.67;100769.75;6191908;23;20008;-88
2022/08/17 05:05:28;;;;;;;42.55;34.40;;;;;;;19.83;88.77;100774.41;6191019;23;20043;-89
2022/08/17 05:07:56;;;;;;;50.15;36.40;;;;;;;19.84;88.77;100768.63;6217162;23;20058;-88
2022/08/17 05:10:23;;;;;;;46.15;34.40;;;;;;;19.91;88.46;100765.59;6217212;23;20004;-88
2022/08/17 05:13:03;;;;;;;42.70;33.43;;;;;;;19.97;87.99;100756.19;6190834;23;20331;-88
2022/08/17 05:15:29;;;;;;;41.45;34.08;;;;;;;20.00;88.17;100749.31;6191258;23;20087;-88
2022/08/17 05:17:55;;;;;;;47.30;34.20;;;;;;;20.04;87.83;100762.22;6191067;23;20008;-89
2022/08/17 05:20:22;;;;;;;43.57;33.83;;;;;;;20.12;87.46;100758.06;6217614;23;20311;-89
2022/08/17 05:22:53;;;;;;;43.78;33.15;;;;;;;20.16;87.37;100765.47;6191009;23;20439;-89
2022/08/17 05:25:29;;;;;;;39.50;32.40;;;;;;;20.25;86.83;100773.16;6192718;23;20408;-92
2022/08/17 05:27:55;;;;;;;40.20;31.83;;;;;;;20.33;86.89;100767.09;6191436;23;20011;-89
2022/08/17 05:30:22;;;;;;;37.35;32.17;;;;;;;20.42;86.56;100765.38;6217050;23;20074;-90
2022/08/17 05:32:53;;;;;;;36.77;29.80;;;;;;;20.51;85.79;100755.41;6165666;23;20016;-90
2022/08/17 05:35:19;;;;;;;38.10;30.45;;;;;;;20.59;85.89;100756.72;6217657;23;20013;-90
2022/08/17 05:37:45;;;;;;;44.00;29.73;;;;;;;20.71;84.88;100753.66;6190773;23;20013;-83
2022/08/17 05:40:11;;;;;;;42.60;31.37;;;;;;;20.82;83.96;100749.72;6190234;23;20036;-87
2022/08/17 05:42:36;;;;;;;36.33;29.58;;;;;;;20.94;83.68;100756.81;6165692;23;20013;-85
2022/08/17 05:45:02;;;;;;;37.17;28.90;;;;;;;21.07;83.33;100752.56;6190283;23;20047;-84
2022/08/17 05:47:29;;;;;;;35.67;29.10;;;;;;;21.17;82.97;100761.59;6165310;23;20005;-83
2022/08/17 05:49:55;;;;;;;38.38;28.80;;;;;;;21.27;82.17;100759.84;6190292;23;20008;-83
2022/08/17 05:52:46;;;;;;;35.27;28.43;;;;;;;21.36;80.99;100756.19;6191019;23;20315;-84
2022/08/17 05:55:11;;;;;;;37.72;27.98;;;;;;;21.44;81.20;100763.00;6217523;23;20008;-84
2022/08/17 05:58:08;;;;;;;34.13;26.60;;;;;;;21.54;80.58;100757.41;6217002;23;20004;-84
2022/08/17 06:00:51;;;;;;;32.15;25.80;;;;;;;21.58;79.81;100765.09;6190523;23;20067;-85
2022/08/17 06:03:39;;;;;;;30.42;25.52;;;;;;;21.58;80.00;100763.16;6215313;23;20012;-85
2022/08/17 06:06:34;;;;;;;29.75;24.83;;;;;;;21.61;79.53;100773.63;6217070;23;20005;-85
2022/08/17 06:09:15;;;;;;;35.08;24.05;;;;;;;21.63;78.66;100770.56;6190948;23;20005;-84
2022/08/17 06:11:46;;;;;;;28.07;23.50;;;;;;;21.66;78.87;100768.06;6215135;23;20011;-84
2022/08/17 06:14:47;;;;;;;29.02;24.05;;;;;;;21.73;78.33;100763.00;6217191;23;20028;-85
2022/08/17 06:17:17;;;;;;;29.50;25.20;;;;;;;21.72;78.65;100761.34;6135357;23;20377;-84
2022/08/17 06:19:57;;;;;;;31.67;24.65;;;;;;;21.82;78.43;100767.88;6190336;23;20028;-84
2022/08/17 06:22:27;;;;;;;29.45;24.52;;;;;;;21.83;78.62;100777.81;6190415;23;20394;-84
2022/08/17 06:25:01;;;;;;;29.80;23.83;;;;;;;21.85;77.92;100779.19;6190347;23;20012;-84
2022/08/17 06:27:52;;;;;;;28.65;24.05;;;;;;;21.88;77.42;100786.06;6191085;23;20318;-84
2022/08/17 06:30:24;;;;;;;25.63;22.92;;;;;;;21.89;77.74;100790.44;6189386;23;20516;-84
2022/08/17 06:32:51;;;;;;;26.65;23.45;;;;;;;21.90;77.28;100794.88;6190017;23;20087;-84
2022/08/17 06:35:36;;;;;;;24.23;21.67;;;;;;;21.94;77.56;100798.69;6165341;23;20008;-84
2022/08/17 06:38:31;;;;;;;25.50;21.10;;;;;;;21.92;76.74;100806.44;6216634;23;20011;-85
2022/08/17 06:41:15;;;;;;;22.77;19.80;;;;;;;21.92;76.60;100803.66;6189914;23;20005;-84
2022/08/17 06:43:40;;;;;;;25.63;20.52;;;;;;;21.86;76.70;100802.09;6215547;23;20013;-84
2022/08/17 06:46:12;;;;;;;22.57;19.67;;;;;;;21.83;76.52;100797.97;6216163;23;20426;-85
2022/08/17 06:48:55;;;;;;;23.55;19.10;;;;;;;21.84;76.23;100802.38;6217075;23;20012;-85
2022/08/17 06:51:34;;;;;;;20.95;18.17;;;;;;;21.81;76.57;100808.50;6217171;23;20000;-84
2022/08/17 06:54:14;;;;;;;20.08;17.85;;;;;;;21.85;76.25;100809.56;6190810;23;20087;-84
2022/08/17 06:56:46;;;;;;;20.57;18.40;;;;;;;21.83;76.42;100819.25;6216046;23;20011;-85
2022/08/17 06:59:18;;;;;;;21.73;18.20;;;;;;;21.85;76.08;100817.84;6189945;23;20009;-85
2022/08/17 07:01:48;;;;;;;22.17;18.30;;;;;;;21.85;75.90;100822.53;6189438;23;20005;-86
2022/08/17 07:04:22;;;;;;;20.55;18.27;;;;;;;21.90;75.79;100817.78;6216188;23;20009;-86
2022/08/17 07:07:00;;;;;;;21.45;17.15;;;;;;;21.97;75.49;100817.44;6190504;23;20019;-86
2022/08/17 07:09:32;;;;;;;25.77;18.03;;;;;;;22.04;75.29;100820.69;6216343;23;20008;-86
2022/08/17 07:12:04;;;;;;;20.30;17.05;;;;;;;22.19;74.79;100827.13;6190102;23;20019;-86
2022/08/17 07:14:46;;;;;;;20.25;17.83;;;;;;;22.32;73.81;100829.22;6190728;23;20487;-85
2022/08/17 07:17:16;;;;;;;20.58;17.00;;;;;;;22.44;73.65;100831.56;6189411;23;20011;-87
2022/08/17 07:19:44;;;;;;;20.85;15.85;;;;;;;22.55;73.27;100835.03;6216333;23;20430;-85
2022/08/17 07:22:35;;;;;;;21.10;16.43;;;;;;;22.66;72.96;100836.53;6189869;23;20494;-90
2022/08/17 07:25:07;;;;;;;21.75;16.65;;;;;;;22.69;72.52;100832.34;6216670;23;20004;-85
2022/08/17 07:27:44;;;;;;;23.73;17.02;;;;;;;22.59;72.65;100830.56;6189468;23;20139;-87
2022/08/17 07:30:16;;;;;;;19.10;16.25;;;;;;;22.56;72.63;100828.38;6190442;23;20015;-87
2022/08/17 07:32:52;;;;;;;18.73;16.02;;;;;;;22.48;72.97;100829.84;6190024;23;20143;-87
2022/08/17 07:35:36;;;;;;;17.90;16.00;;;;;;;22.50;72.71;100841.44;6190721;23;20015;-85
2022/08/17 07:38:11;;;;;;;20.40;16.35;;;;;;;22.46;72.40;100842.34;6190307;23;20418;-86
2022/08/17 07:40:47;;;;;;;18.77;16.33;;;;;;;22.47;72.80;100847.56;6189543;23;20057;-87
2022/08/17 07:43:23;;;;;;;20.45;17.02;;;;;;;22.46;72.80;100848.69;6190212;23;20079;-94
2022/08/17 07:48:45;;;;;;;19.80;17.03;;;;;;;22.69;72.15;100854.47;6216732;23;20051;-87
2022/08/17 07:51:42;;;;;;;19.40;16.48;;;;;;;22.82;71.99;100856.47;6189485;23;20505;-87
2022/08/17 07:54:15;;;;;;;19.58;17.33;;;;;;;22.86;71.33;100854.78;6160751;23;20004;-87
2022/08/17 07:56:51;;;;;;;20.05;17.33;;;;;;;22.85;71.13;100852.31;6190231;23;20017;-88
2022/08/17 07:59:23;;;;;;;17.60;15.52;;;;;;;22.90;71.60;100855.00;6189846;23;20047;-89
2022/08/17 08:01:57;;;;;;;19.63;16.77;;;;;;;22.98;70.05;100856.28;6189867;23;20418;-87
2022/08/17 08:04:49;;;;;;;18.92;16.00;;;;;;;23.15;70.46;100850.22;6215305;23;20035;-87
2022/08/17 08:07:15;;;;;;;20.17;16.52;;;;;;;23.27;69.52;100853.38;6200394;23;20009;-87
2022/08/17 08:09:44;;;;;;;18.53;15.47;;;;;;;23.38;69.52;100848.50;6189453;23;20312;-87
2022/08/17 08:12:24;;;;;;;19.45;15.65;;;;;;;23.50;69.26;100850.78;6189626;23;20008;-87
2022/08/17 08:14:56;;;;;;;21.92;16.25;;;;;;;23.54;68.60;100852.66;6216562;23;20086;-87
2022/08/17 08:17:30;;;;;;;20.13;15.93;;;;;;;23.60;68.26;100858.94;6191603;23;20029;-87
2022/08/17 08:19:58;;;;;;;21.00;16.35;;;;;;;23.76;67.77;100853.94;6218172;23;20000;-87
2022/08/17 08:23:01;;;;;;;19.38;16.08;;;;;;;23.94;67.35;100855.03;6191134;23;20004;-87
2022/08/17 08:26:08;;;;;;;19.17;16.45;;;;;;;24.12;66.88;100848.59;6216204;23;20009;-87
2022/08/17 08:28:53;;;;;;;25.35;16.33;;;;;;;24.21;66.18;100842.31;6191558;23;20031;-87
2022/08/17 08:31:36;;;;;;;23.43;16.63;;;;;;;24.20;65.93;100837.91;6191791;23;20014;-87
2022/08/17 08:34:17;;;;;;;20.33;17.05;;;;;;;24.26;65.67;100834.72;6191014;23;20020;-85
2022/08/17 08:37:00;;;;;;;23.65;16.63;;;;;;;24.27;65.44;100838.31;6218081;23;20059;-87
2022/08/17 08:40:03;;;;;;;19.38;17.20;;;;;;;24.30;65.19;100841.31;6191710;23;20078;-85
2022/08/17 08:42:35;;;;;;;21.05;17.00;;;;;;;24.25;64.93;100841.41;6182490;23;20013;-87
2022/08/17 08:45:23;;;;;;;21.20;17.57;;;;;;;24.36;64.92;100850.34;6216053;23;20016;-87
2022/08/17 08:48:12;;;;;;;21.38;16.95;;;;;;;24.47;64.76;100857.31;6217223;23;20005;-87
2022/08/17 08:50:56;;;;;;;21.27;16.92;;;;;;;24.69;64.10;100875.19;6191284;23;20015;-87
2022/08/17 08:53:30;;;;;;;21.40;18.20;;;;;;;24.81;63.66;100878.25;6190946;23;20036;-87
2022/08/17 08:56:08;;;;;;;19.63;16.92;;;;;;;24.97;63.25;100880.69;6215940;23;20008;-87
2022/08/17 08:58:51;;;;;;;23.53;15.70;;;;;;;25.08;62.09;100881.28;6218239;23;20001;-87
2022/08/17 09:01:30;;;;;;;27.15;18.00;;;;;;;25.27;61.85;100879.16;6217674;23;20031;-87
2022/08/17 09:04:21;;;;;;;21.15;17.67;;;;;;;25.41;61.74;100881.06;6217506;23;20013;-88
2022/08/17 09:07:03;;;;;;;20.55;17.48;;;;;;;25.39;61.33;100881.38;6216129;23;20073;-87
2022/08/17 09:10:01;;;;;;;22.10;18.88;;;;;;;25.33;61.43;100872.34;6190733;23;20016;-87
2022/08/17 09:12:46;;;;;;;23.53;18.30;;;;;;;25.10;61.85;100867.88;6191115;23;20001;-87
2022/08/17 09:15:26;;;;;;;20.08;17.23;;;;;;;24.98;62.38;100879.53;6190965;23;20055;-87
2022/08/17 09:18:01;;;;;;;24.00;18.05;;;;;;;24.93;62.27;100880.47;6190456;23;20080;-87
2022/08/17 09:20:32;;;;;;;23.92;19.27;;;;;;;24.71;62.33;100877.66;6217130;23;20430;-87
2022/08/17 09:23:31;;;;;;;22.02;18.77;;;;;;;24.72;62.73;100880.13;6190929;23;20083;-87
2022/08/17 09:26:15;;;;;;;21.50;18.90;;;;;;;24.72;63.08;100877.34;6190771;23;20349;-87
2022/08/17 09:28:47;;;;;;;22.40;18.25;;;;;;;24.61;63.67;100895.31;6190568;23;20363;-87
2022/08/17 09:31:34;;;;;;;18.90;16.90;;;;;;;24.62;64.07;100892.25;6190812;23;20019;-88
2022/08/17 09:34:07;;;;;;;22.52;17.92;;;;;;;24.47;64.38;100901.66;6191094;23;20019;-88
2022/08/17 09:36:49;;;;;;;22.00;17.33;;;;;;;24.41;65.31;100913.19;6217976;23;20016;-88
2022/08/17 09:40:13;;;;;;;20.63;17.27;;;;;;;24.24;66.61;100924.88;6216760;23;20004;-88
2022/08/17 09:42:46;;;;;;;20.58;18.27;;;;;;;23.64;68.91;100937.50;6162824;23;20012;-88
2022/08/17 09:45:25;;;;;;;24.83;19.40;;;;;;;23.19;71.72;100953.69;6216846;23;20362;-88
2022/08/17 09:47:56;;;;;;;25.40;20.20;;;;;;;22.62;75.21;100951.63;6191001;23;20005;-88
2022/08/17 09:50:42;;;;;;;23.25;19.73;;;;;;;22.28;76.46;100971.00;6217147;23;20067;-88
2022/08/17 09:53:08;;;;;;;23.37;20.27;;;;;;;21.80;78.18;100980.00;6190795;23;20040;-88
2022/08/17 09:56:01;;;;;;;29.33;21.95;;;;;;;21.34;81.50;100986.63;6165490;23;20015;-88
2022/08/17 09:59:04;;;;;;;31.10;23.45;;;;;;;20.77;86.93;100975.84;6215331;23;20118;-88
2022/08/17 10:01:42;;;;;;;33.10;25.75;;;;;;;20.35;90.46;100956.91;6215132;23;20005;-88
2022/08/17 10:04:35;;;;;;;37.60;28.37;;;;;;;20.00;94.57;100947.59;6190630;23;20009;-87
2022/08/17 10:07:10;;;;;;;38.97;29.02;;;;;;;19.86;98.59;100942.63;6190577;23;20004;-86
2022/08/17 10:09:48;;;;;;;38.08;28.70;;;;;;;19.77;99.23;100952.50;6216838;23;20035;-85
2022/08/17 10:12:20;;;;;;;38.30;28.83;;;;;;;19.84;100.00;100963.28;6190120;23;20012;-84
2022/08/17 10:15:06;;;;;;;45.97;30.52;;;;;;;19.71;100.00;100956.34;6216987;23;20048;-84
2022/08/17 10:17:32;;;;;;;46.67;32.53;;;;;;;19.73;100.00;100948.66;6215622;23;20085;-83
2022/08/17 10:20:04;;;;;;;51.53;35.15;;;;;;;19.86;100.00;100944.56;6190085;23;20423;-84
2022/08/17 10:28:07;;;;;;;46.90;34.83;;;;;;;20.32;100.00;100947.25;6216313;23;20457;-84
2022/08/17 10:30:42;;;;;;;49.38;35.05;;;;;;;20.37;100.00;100943.66;6216589;23;20008;-84
2022/08/17 10:33:16;;;;;;;51.55;35.17;;;;;;;20.45;100.00;100949.44;6216411;23;20043;-84
2022/08/17 10:35:47;;;;;;;49.10;35.67;;;;;;;20.58;100.00;100955.44;6190655;23;20017;-84
2022/08/17 10:38:38;;;;;;;47.80;34.47;;;;;;;20.62;100.00;100953.78;6189894;23;20020;-84
2022/08/17 10:41:23;;;;;;;44.03;33.53;;;;;;;20.67;100.00;100951.06;6216822;23;20001;-84
2022/08/17 10:44:03;;;;;;;46.90;34.53;;;;;;;20.69;100.00;100943.34;6189900;23;20062;-84
2022/08/17 10:46:53;;;;;;;44.15;34.15;;;;;;;20.70;100.00;100927.59;6189853;23;20008;-84
2022/08/17 10:49:19;;;;;;;45.75;33.97;;;;;;;20.56;100.00;100928.16;6216830;23;20028;-85
2022/08/17 10:51:47;;;;;;;45.50;32.83;;;;;;;20.44;100.00;100920.22;6190445;23;20004;-84
2022/08/17 10:54:44;;;;;;;43.10;32.28;;;;;;;20.36;100.00;100909.78;6189286;23;20009;-85
2022/08/17 10:57:35;;;;;;;44.28;32.80;;;;;;;20.28;100.00;100899.31;6190073;23;20031;-85
2022/08/17 11:00:20;;;;;;;44.97;31.50;;;;;;;20.10;100.00;100895.25;6189886;23;20008;-84
2022/08/17 11:02:51;;;;;;;39.95;32.58;;;;;;;19.98;100.00;100906.56;6216164;23;20030;-87
2022/08/17 11:05:19;;;;;;;43.50;32.27;;;;;;;19.88;100.00;100910.13;6189152;23;20005;-84
2022/08/17 11:08:06;;;;;;;44.60;32.10;;;;;;;19.81;100.00;100912.34;6189713;23;20035;-84
2022/08/17 11:10:53;;;;;;;40.67;32.00;;;;;;;19.74;100.00;100915.34;6216329;23;20074;-85
2022/08/17 11:13:37;;;;;;;42.88;33.80;;;;;;;19.74;100.00;100920.03;6215056;23;20446;-85
2022/08/17 11:16:20;;;;;;;43.65;32.60;;;;;;;19.61;100.00;100904.88;6216187;23;20403;-85
2022/08/17 11:18:46;;;;;;;44.23;33.50;;;;;;;19.63;100.00;100909.03;6190393;23;20012;-85
2022/08/17 11:21:41;;;;;;;41.55;32.78;;;;;;;19.57;100.00;100907.34;6189914;23;20296;-85
2022/08/17 11:24:13;;;;;;;44.33;33.20;;;;;;;19.55;100.00;100926.06;6190195;23;20009;-85
2022/08/17 11:26:45;;;;;;;41.70;32.58;;;;;;;19.54;100.00;100929.91;6190148;23;20012;-85
2022/08/17 11:29:21;;;;;;;41.20;32.17;;;;;;;19.56;100.00;100933.22;6166423;23;20008;-85
2022/08/17 11:32:01;;;;;;;41.45;33.10;;;;;;;19.48;100.00;100953.03;6190488;23;20174;-86
2022/08/17 11:34:29;;;;;;;43.15;33.72;;;;;;;19.51;100.00;100960.72;6216827;23;20027;-86
2022/08/17 11:37:38;;;;;;;42.93;32.97;;;;;;;19.55;100.00;100967.34;6189000;23;20004;-86
2022/08/17 11:40:16;;;;;;;40.75;32.22;;;;;;;19.62;100.00;100972.56;6216124;23;20011;-86
2022/08/17 11:42:44;;;;;;;47.45;32.97;;;;;;;19.71;100.00;100964.59;6190143;23;20008;-86
2022/08/17 11:45:30;;;;;;;45.30;33.88;;;;;;;19.79;100.00;100969.59;6216134;23;20031;-86
2022/08/17 11:51:40;;;;;;;49.23;33.83;;;;;;;20.24;100.00;100973.44;6218605;23;20059;-84
2022/08/17 11:54:15;;;;;;;43.67;33.08;;;;;;;20.31;100.00;100975.91;6191754;23;20481;-83
2022/08/17 11:56:42;;;;;;;43.55;32.83;;;;;;;20.36;100.00;100981.44;6192140;23;20091;-83
2022/08/17 11:59:37;;;;;;;44.60;33.65;;;;;;;20.20;100.00;100993.56;6216541;23;20012;-84
2022/08/17 12:02:26;;;;;;;46.28;34.00;;;;;;;20.04;100.00;101003.75;6191720;23;20040;-84
2022/08/17 12:05:13;;;;;;;46.40;34.07;;;;;;;19.93;100.00;101002.91;6191205;23;20008;-84